sensor_id;sensor_type;location;lat;lon;timestamp;P1;durP1;ratioP1;P2;durP2;ratioP2
17890;SDS011;9071;48.220;14.480;2023-02-22T00:00:24;34.93;;;19.53;;
17890;SDS011;9071;48.220;14.480;2023-02-22T00:05:40;30.57;;;18.00;;
17890;SDS011;9071;48.220;14.480;2023-02-22T00:10:47;27.87;;;17.27;;
17890;SDS011;9071;48.220;14.480;2023-02-22T00:15:51;31.20;;;17.00;;
17890;SDS011;9071;48.220;14.480;2023-02-22T00:20:54;28.70;;;16.67;;
17890;SDS011;9071;48.220;14.480;2023-02-22T00:26:00;35.13;;;20.63;;
17890;SDS011;9071;48.220;14.480;2023-02-22T00:31:02;35.73;;;22.63;;
17890;SDS011;9071;48.220;14.480;2023-02-22T00:36:06;40.90;;;23.60;;
17890;SDS011;9071;48.220;14.480;2023-02-22T00:41:10;36.47;;;21.13;;
17890;SDS011;9071;48.220;14.480;2023-02-22T00:46:12;33.53;;;20.37;;
17890;SDS011;9071;48.220;14.480;2023-02-22T00:51:14;33.80;;;20.00;;
17890;SDS011;9071;48.220;14.480;2023-02-22T00:56:18;33.33;;;19.17;;
17890;SDS011;9071;48.220;14.480;2023-02-22T01:01:20;31.37;;;17.70;;
17890;SDS011;9071;48.220;14.480;2023-02-22T01:06:23;34.83;;;18.87;;
17890;SDS011;9071;48.220;14.480;2023-02-22T01:11:26;30.00;;;17.47;;
17890;SDS011;9071;48.220;14.480;2023-02-22T01:16:28;36.83;;;20.07;;
17890;SDS011;9071;48.220;14.480;2023-02-22T01:21:30;32.47;;;19.03;;
17890;SDS011;9071;48.220;14.480;2023-02-22T01:26:34;27.90;;;17.70;;
17890;SDS011;9071;48.220;14.480;2023-02-22T01:31:37;36.30;;;20.20;;
17890;SDS011;9071;48.220;14.480;2023-02-22T01:36:39;31.83;;;18.30;;
17890;SDS011;9071;48.220;14.480;2023-02-22T01:41:43;34.53;;;19.70;;
17890;SDS011;9071;48.220;14.480;2023-02-22T01:46:45;34.23;;;19.97;;
17890;SDS011;9071;48.220;14.480;2023-02-22T01:51:48;31.40;;;19.07;;
17890;SDS011;9071;48.220;14.480;2023-02-22T01:56:55;29.03;;;17.20;;
17890;SDS011;9071;48.220;14.480;2023-02-22T02:02:05;30.33;;;17.53;;
17890;SDS011;9071;48.220;14.480;2023-02-22T02:07:08;31.63;;;17.40;;
17890;SDS011;9071;48.220;14.480;2023-02-22T02:12:15;28.70;;;16.97;;
17890;SDS011;9071;48.220;14.480;2023-02-22T02:17:19;28.47;;;16.83;;
17890;SDS011;9071;48.220;14.480;2023-02-22T02:22:29;25.67;;;15.83;;
17890;SDS011;9071;48.220;14.480;2023-02-22T02:27:49;23.07;;;15.67;;
17890;SDS011;9071;48.220;14.480;2023-02-22T02:33:17;27.77;;;16.20;;
17890;SDS011;9071;48.220;14.480;2023-02-22T02:38:26;29.03;;;16.83;;
17890;SDS011;9071;48.220;14.480;2023-02-22T02:43:34;26.63;;;17.20;;
17890;SDS011;9071;48.220;14.480;2023-02-22T02:48:44;34.53;;;19.40;;
17890;SDS011;9071;48.220;14.480;2023-02-22T02:53:53;32.70;;;18.17;;
17890;SDS011;9071;48.220;14.480;2023-02-22T02:58:57;30.93;;;18.10;;
17890;SDS011;9071;48.220;14.480;2023-02-22T03:04:04;34.53;;;20.37;;
17890;SDS011;9071;48.220;14.480;2023-02-22T03:09:25;41.77;;;23.60;;
17890;SDS011;9071;48.220;14.480;2023-02-22T03:14:37;46.20;;;24.00;;
17890;SDS011;9071;48.220;14.480;2023-02-22T03:19:44;32.63;;;20.73;;
17890;SDS011;9071;48.220;14.480;2023-02-22T03:24:51;37.47;;;19.60;;
17890;SDS011;9071;48.220;14.480;2023-02-22T03:29:58;34.97;;;21.93;;
17890;SDS011;9071;48.220;14.480;2023-02-22T03:35:05;37.30;;;21.30;;
17890;SDS011;9071;48.220;14.480;2023-02-22T03:40:11;36.40;;;21.53;;
17890;SDS011;9071;48.220;14.480;2023-02-22T03:45:16;32.37;;;20.17;;
17890;SDS011;9071;48.220;14.480;2023-02-22T03:50:24;35.97;;;18.77;;
17890;SDS011;9071;48.220;14.480;2023-02-22T03:55:29;34.87;;;19.67;;
17890;SDS011;9071;48.220;14.480;2023-02-22T04:00:32;33.40;;;19.13;;
17890;SDS011;9071;48.220;14.480;2023-02-22T04:05:37;29.63;;;18.27;;
17890;SDS011;9071;48.220;14.480;2023-02-22T04:10:39;31.47;;;18.60;;
17890;SDS011;9071;48.220;14.480;2023-02-22T04:15:41;35.00;;;19.90;;
17890;SDS011;9071;48.220;14.480;2023-02-22T04:20:45;32.77;;;18.93;;
17890;SDS011;9071;48.220;14.480;2023-02-22T04:25:47;32.13;;;18.87;;
17890;SDS011;9071;48.220;14.480;2023-02-22T04:30:49;32.50;;;18.70;;
17890;SDS011;9071;48.220;14.480;2023-02-22T04:35:52;30.43;;;18.50;;
17890;SDS011;9071;48.220;14.480;2023-02-22T04:40:56;29.53;;;18.80;;
17890;SDS011;9071;48.220;14.480;2023-02-22T04:45:58;38.07;;;21.10;;
17890;SDS011;9071;48.220;14.480;2023-02-22T04:51:02;38.93;;;23.03;;
17890;SDS011;9071;48.220;14.480;2023-02-22T04:56:05;38.57;;;22.50;;
17890;SDS011;9071;48.220;14.480;2023-02-22T05:01:07;33.27;;;20.17;;
17890;SDS011;9071;48.220;14.480;2023-02-22T05:06:11;38.47;;;21.47;;
17890;SDS011;9071;48.220;14.480;2023-02-22T05:11:13;37.13;;;21.43;;
17890;SDS011;9071;48.220;14.480;2023-02-22T05:16:15;44.23;;;22.63;;
17890;SDS011;9071;48.220;14.480;2023-02-22T05:21:19;56.27;;;26.30;;
17890;SDS011;9071;48.220;14.480;2023-02-22T05:26:21;49.10;;;22.97;;
17890;SDS011;9071;48.220;14.480;2023-02-22T05:31:23;43.20;;;21.23;;
17890;SDS011;9071;48.220;14.480;2023-02-22T05:36:27;39.20;;;21.07;;
17890;SDS011;9071;48.220;14.480;2023-02-22T05:41:29;39.00;;;21.57;;
17890;SDS011;9071;48.220;14.480;2023-02-22T05:46:31;35.43;;;21.80;;
17890;SDS011;9071;48.220;14.480;2023-02-22T05:51:34;44.13;;;24.93;;
17890;SDS011;9071;48.220;14.480;2023-02-22T05:56:36;50.00;;;26.63;;
17890;SDS011;9071;48.220;14.480;2023-02-22T06:01:38;52.60;;;27.27;;
17890;SDS011;9071;48.220;14.480;2023-02-22T06:06:42;43.70;;;24.47;;
17890;SDS011;9071;48.220;14.480;2023-02-22T06:11:45;66.03;;;29.80;;
17890;SDS011;9071;48.220;14.480;2023-02-22T06:16:50;50.53;;;26.00;;
17890;SDS011;9071;48.220;14.480;2023-02-22T06:21:55;47.07;;;26.80;;
17890;SDS011;9071;48.220;14.480;2023-02-22T06:26:59;48.57;;;26.47;;
17890;SDS011;9071;48.220;14.480;2023-02-22T06:32:02;63.47;;;33.70;;
17890;SDS011;9071;48.220;14.480;2023-02-22T06:37:06;153.03;;;33.67;;
17890;SDS011;9071;48.220;14.480;2023-02-22T06:42:09;59.70;;;30.93;;
17890;SDS011;9071;48.220;14.480;2023-02-22T06:47:11;68.53;;;34.47;;
17890;SDS011;9071;48.220;14.480;2023-02-22T06:52:15;62.93;;;32.97;;
17890;SDS011;9071;48.220;14.480;2023-02-22T06:57:17;67.23;;;32.70;;
17890;SDS011;9071;48.220;14.480;2023-02-22T07:02:19;97.30;;;33.23;;
17890;SDS011;9071;48.220;14.480;2023-02-22T07:07:23;50.27;;;28.40;;
17890;SDS011;9071;48.220;14.480;2023-02-22T07:12:25;60.57;;;30.53;;
17890;SDS011;9071;48.220;14.480;2023-02-22T07:17:27;108.70;;;27.90;;
17890;SDS011;9071;48.220;14.480;2023-02-22T07:22:30;73.57;;;25.20;;
17890;SDS011;9071;48.220;14.480;2023-02-22T07:27:32;100.50;;;23.60;;
17890;SDS011;9071;48.220;14.480;2023-02-22T07:32:37;42.77;;;17.93;;
17890;SDS011;9071;48.220;14.480;2023-02-22T07:37:40;51.07;;;18.37;;
17890;SDS011;9071;48.220;14.480;2023-02-22T07:42:52;26.80;;;14.70;;
17890;SDS011;9071;48.220;14.480;2023-02-22T07:47:55;20.33;;;13.90;;
17890;SDS011;9071;48.220;14.480;2023-02-22T07:52:59;17.10;;;12.43;;
17890;SDS011;9071;48.220;14.480;2023-02-22T07:58:04;13.23;;;10.23;;
17890;SDS011;9071;48.220;14.480;2023-02-22T08:03:08;10.57;;;8.70;;
17890;SDS011;9071;48.220;14.480;2023-02-22T08:08:13;10.10;;;7.30;;
17890;SDS011;9071;48.220;14.480;2023-02-22T08:13:17;10.00;;;7.10;;
17890;SDS011;9071;48.220;14.480;2023-02-22T08:18:21;7.73;;;6.53;;
17890;SDS011;9071;48.220;14.480;2023-02-22T08:23:35;8.00;;;6.53;;
17890;SDS011;9071;48.220;14.480;2023-02-22T08:28:37;7.80;;;6.03;;
17890;SDS011;9071;48.220;14.480;2023-02-22T08:33:39;10.00;;;6.20;;
17890;SDS011;9071;48.220;14.480;2023-02-22T08:38:43;7.33;;;6.00;;
17890;SDS011;9071;48.220;14.480;2023-02-22T08:43:45;10.10;;;6.07;;
17890;SDS011;9071;48.220;14.480;2023-02-22T08:48:48;8.70;;;5.63;;
17890;SDS011;9071;48.220;14.480;2023-02-22T08:53:52;9.93;;;6.23;;
17890;SDS011;9071;48.220;14.480;2023-02-22T08:58:54;16.30;;;7.10;;
17890;SDS011;9071;48.220;14.480;2023-02-22T09:03:56;16.97;;;7.20;;
17890;SDS011;9071;48.220;14.480;2023-02-22T09:09:00;22.60;;;7.10;;
17890;SDS011;9071;48.220;14.480;2023-02-22T09:14:02;12.77;;;6.47;;
17890;SDS011;9071;48.220;14.480;2023-02-22T09:19:04;12.27;;;6.73;;
17890;SDS011;9071;48.220;14.480;2023-02-22T09:24:08;8.30;;;5.80;;
17890;SDS011;9071;48.220;14.480;2023-02-22T09:29:10;10.43;;;5.80;;
17890;SDS011;9071;48.220;14.480;2023-02-22T09:34:12;9.00;;;5.70;;
17890;SDS011;9071;48.220;14.480;2023-02-22T09:39:16;16.17;;;6.47;;
17890;SDS011;9071;48.220;14.480;2023-02-22T09:44:19;9.17;;;6.73;;
17890;SDS011;9071;48.220;14.480;2023-02-22T09:49:27;11.07;;;6.73;;
17890;SDS011;9071;48.220;14.480;2023-02-22T09:54:35;11.60;;;6.10;;
17890;SDS011;9071;48.220;14.480;2023-02-22T09:59:42;8.93;;;6.23;;
17890;SDS011;9071;48.220;14.480;2023-02-22T10:04:51;9.70;;;6.20;;
17890;SDS011;9071;48.220;14.480;2023-02-22T10:10:01;9.37;;;6.03;;
17890;SDS011;9071;48.220;14.480;2023-02-22T10:15:20;8.30;;;5.23;;
17890;SDS011;9071;48.220;14.480;2023-02-22T10:20:43;10.97;;;5.47;;
17890;SDS011;9071;48.220;14.480;2023-02-22T10:25:56;6.10;;;5.20;;
17890;SDS011;9071;48.220;14.480;2023-02-22T10:31:06;5.90;;;4.97;;
17890;SDS011;9071;48.220;14.480;2023-02-22T10:36:09;7.90;;;4.90;;
17890;SDS011;9071;48.220;14.480;2023-02-22T10:41:20;7.80;;;4.87;;
17890;SDS011;9071;48.220;14.480;2023-02-22T10:46:28;7.87;;;5.23;;
17890;SDS011;9071;48.220;14.480;2023-02-22T10:51:32;8.03;;;5.17;;
17890;SDS011;9071;48.220;14.480;2023-02-22T10:56:35;7.80;;;4.87;;
17890;SDS011;9071;48.220;14.480;2023-02-22T11:01:47;6.20;;;4.50;;
17890;SDS011;9071;48.220;14.480;2023-02-22T11:12:10;6.00;;;4.10;;
17890;SDS011;9071;48.220;14.480;2023-02-22T11:17:23;6.90;;;3.80;;
17890;SDS011;9071;48.220;14.480;2023-02-22T11:22:34;4.43;;;3.23;;
17890;SDS011;9071;48.220;14.480;2023-02-22T11:27:42;3.47;;;3.13;;
17890;SDS011;9071;48.220;14.480;2023-02-22T11:32:46;7.00;;;3.23;;
17890;SDS011;9071;48.220;14.480;2023-02-22T11:37:50;4.45;;;2.83;;
17890;SDS011;9071;48.220;14.480;2023-02-22T11:43:05;4.13;;;2.85;;
17890;SDS011;9071;48.220;14.480;2023-02-22T11:48:17;4.50;;;2.50;;
17890;SDS011;9071;48.220;14.480;2023-02-22T11:53:24;5.80;;;3.00;;
17890;SDS011;9071;48.220;14.480;2023-02-22T11:58:36;2.97;;;2.65;;
17890;SDS011;9071;48.220;14.480;2023-02-22T12:03:54;2.95;;;2.30;;
17890;SDS011;9071;48.220;14.480;2023-02-22T12:09:24;2.78;;;2.38;;
17890;SDS011;9071;48.220;14.480;2023-02-22T12:14:36;3.53;;;2.67;;
17890;SDS011;9071;48.220;14.480;2023-02-22T12:19:45;2.55;;;2.35;;
17890;SDS011;9071;48.220;14.480;2023-02-22T12:24:52;2.35;;;1.80;;
17890;SDS011;9071;48.220;14.480;2023-02-22T12:30:00;3.03;;;1.77;;
17890;SDS011;9071;48.220;14.480;2023-02-22T12:35:09;2.35;;;1.83;;
17890;SDS011;9071;48.220;14.480;2023-02-22T12:40:18;1.85;;;1.58;;
17890;SDS011;9071;48.220;14.480;2023-02-22T12:45:27;5.10;;;1.67;;
17890;SDS011;9071;48.220;14.480;2023-02-22T12:50:34;2.88;;;1.48;;
17890;SDS011;9071;48.220;14.480;2023-02-22T12:55:38;2.63;;;2.00;;
17890;SDS011;9071;48.220;14.480;2023-02-22T13:00:47;6.75;;;2.33;;
17890;SDS011;9071;48.220;14.480;2023-02-22T13:05:57;2.92;;;2.13;;
17890;SDS011;9071;48.220;14.480;2023-02-22T13:11:20;3.75;;;1.70;;
17890;SDS011;9071;48.220;14.480;2023-02-22T13:16:32;1.63;;;1.52;;
17890;SDS011;9071;48.220;14.480;2023-02-22T13:21:43;1.70;;;1.60;;
17890;SDS011;9071;48.220;14.480;2023-02-22T13:26:51;4.03;;;1.88;;
17890;SDS011;9071;48.220;14.480;2023-02-22T13:32:02;1.77;;;1.42;;
17890;SDS011;9071;48.220;14.480;2023-02-22T13:37:16;2.38;;;2.00;;
17890;SDS011;9071;48.220;14.480;2023-02-22T13:48:07;2.05;;;1.85;;
17890;SDS011;9071;48.220;14.480;2023-02-22T13:53:37;2.47;;;1.88;;
17890;SDS011;9071;48.220;14.480;2023-02-22T13:58:47;2.25;;;1.42;;
17890;SDS011;9071;48.220;14.480;2023-02-22T14:03:57;2.25;;;1.60;;
17890;SDS011;9071;48.220;14.480;2023-02-22T14:14:57;1.95;;;1.58;;
17890;SDS011;9071;48.220;14.480;2023-02-22T14:20:23;3.42;;;2.00;;
17890;SDS011;9071;48.220;14.480;2023-02-22T14:25:35;2.17;;;1.60;;
17890;SDS011;9071;48.220;14.480;2023-02-22T14:30:39;2.60;;;1.38;;
17890;SDS011;9071;48.220;14.480;2023-02-22T14:35:42;2.78;;;1.40;;
17890;SDS011;9071;48.220;14.480;2023-02-22T14:40:46;2.40;;;1.30;;
17890;SDS011;9071;48.220;14.480;2023-02-22T14:45:51;1.48;;;1.27;;
17890;SDS011;9071;48.220;14.480;2023-02-22T14:50:59;2.00;;;1.50;;
17890;SDS011;9071;48.220;14.480;2023-02-22T14:56:06;2.35;;;1.50;;
17890;SDS011;9071;48.220;14.480;2023-02-22T15:01:15;5.28;;;2.00;;
17890;SDS011;9071;48.220;14.480;2023-02-22T15:06:25;4.05;;;2.30;;
17890;SDS011;9071;48.220;14.480;2023-02-22T15:11:34;3.63;;;2.63;;
17890;SDS011;9071;48.220;14.480;2023-02-22T15:16:36;5.00;;;2.88;;
17890;SDS011;9071;48.220;14.480;2023-02-22T15:21:46;5.18;;;2.92;;
17890;SDS011;9071;48.220;14.480;2023-02-22T15:26:49;2.92;;;2.10;;
17890;SDS011;9071;48.220;14.480;2023-02-22T15:31:53;3.25;;;2.38;;
17890;SDS011;9071;48.220;14.480;2023-02-22T15:37:00;6.05;;;3.10;;
17890;SDS011;9071;48.220;14.480;2023-02-22T15:42:13;4.93;;;2.60;;
17890;SDS011;9071;48.220;14.480;2023-02-22T15:47:20;5.18;;;4.10;;
17890;SDS011;9071;48.220;14.480;2023-02-22T15:52:26;6.80;;;3.90;;
17890;SDS011;9071;48.220;14.480;2023-02-22T15:57:28;6.47;;;3.80;;
17890;SDS011;9071;48.220;14.480;2023-02-22T16:02:32;7.30;;;3.07;;
17890;SDS011;9071;48.220;14.480;2023-02-22T16:07:40;5.13;;;3.30;;
17890;SDS011;9071;48.220;14.480;2023-02-22T16:12:45;5.23;;;3.23;;
17890;SDS011;9071;48.220;14.480;2023-02-22T16:17:47;6.40;;;2.90;;
17890;SDS011;9071;48.220;14.480;2023-02-22T16:22:50;4.63;;;3.07;;
17890;SDS011;9071;48.220;14.480;2023-02-22T16:27:58;3.87;;;2.93;;
17890;SDS011;9071;48.220;14.480;2023-02-22T16:33:05;5.07;;;3.07;;
17890;SDS011;9071;48.220;14.480;2023-02-22T16:38:13;4.20;;;3.03;;
17890;SDS011;9071;48.220;14.480;2023-02-22T16:43:17;5.30;;;3.03;;
17890;SDS011;9071;48.220;14.480;2023-02-22T16:48:22;5.23;;;2.97;;
17890;SDS011;9071;48.220;14.480;2023-02-22T16:53:26;7.00;;;3.50;;
17890;SDS011;9071;48.220;14.480;2023-02-22T16:58:33;4.67;;;3.07;;
17890;SDS011;9071;48.220;14.480;2023-02-22T17:03:38;5.73;;;3.30;;
17890;SDS011;9071;48.220;14.480;2023-02-22T17:08:42;5.40;;;3.37;;
17890;SDS011;9071;48.220;14.480;2023-02-22T17:13:44;7.23;;;3.80;;
17890;SDS011;9071;48.220;14.480;2023-02-22T17:18:50;6.63;;;3.90;;
17890;SDS011;9071;48.220;14.480;2023-02-22T17:23:54;5.40;;;3.37;;
17890;SDS011;9071;48.220;14.480;2023-02-22T17:28:56;6.47;;;3.57;;
17890;SDS011;9071;48.220;14.480;2023-02-22T17:33:59;4.43;;;3.03;;
17890;SDS011;9071;48.220;14.480;2023-02-22T17:39:05;7.43;;;3.70;;
17890;SDS011;9071;48.220;14.480;2023-02-22T17:44:09;13.83;;;9.10;;
17890;SDS011;9071;48.220;14.480;2023-02-22T17:49:11;10.07;;;8.23;;
17890;SDS011;9071;48.220;14.480;2023-02-22T17:54:16;8.03;;;4.90;;
17890;SDS011;9071;48.220;14.480;2023-02-22T17:59:18;7.40;;;3.83;;
17890;SDS011;9071;48.220;14.480;2023-02-22T18:04:20;7.03;;;4.27;;
17890;SDS011;9071;48.220;14.480;2023-02-22T18:09:23;5.60;;;4.10;;
17890;SDS011;9071;48.220;14.480;2023-02-22T18:14:26;5.63;;;3.73;;
17890;SDS011;9071;48.220;14.480;2023-02-22T18:19:28;5.37;;;3.80;;
17890;SDS011;9071;48.220;14.480;2023-02-22T18:24:32;10.33;;;5.90;;
17890;SDS011;9071;48.220;14.480;2023-02-22T18:29:35;22.37;;;11.27;;
17890;SDS011;9071;48.220;14.480;2023-02-22T18:34:37;46.93;;;22.03;;
17890;SDS011;9071;48.220;14.480;2023-02-22T18:39:41;20.27;;;10.87;;
17890;SDS011;9071;48.220;14.480;2023-02-22T18:44:43;12.97;;;8.73;;
17890;SDS011;9071;48.220;14.480;2023-02-22T18:49:45;14.70;;;8.63;;
17890;SDS011;9071;48.220;14.480;2023-02-22T18:54:49;11.17;;;6.60;;
17890;SDS011;9071;48.220;14.480;2023-02-22T18:59:51;9.00;;;5.70;;
17890;SDS011;9071;48.220;14.480;2023-02-22T19:04:54;10.47;;;6.57;;
17890;SDS011;9071;48.220;14.480;2023-02-22T19:09:58;10.40;;;6.60;;
17890;SDS011;9071;48.220;14.480;2023-02-22T19:15:01;9.70;;;6.93;;
17890;SDS011;9071;48.220;14.480;2023-02-22T19:20:04;11.27;;;7.37;;
17890;SDS011;9071;48.220;14.480;2023-02-22T19:25:11;11.97;;;8.00;;
17890;SDS011;9071;48.220;14.480;2023-02-22T19:30:13;9.77;;;6.67;;
17890;SDS011;9071;48.220;14.480;2023-02-22T19:35:16;13.30;;;7.23;;
17890;SDS011;9071;48.220;14.480;2023-02-22T19:40:26;8.47;;;6.37;;
17890;SDS011;9071;48.220;14.480;2023-02-22T19:45:28;9.83;;;6.47;;
17890;SDS011;9071;48.220;14.480;2023-02-22T19:50:30;8.90;;;6.80;;
17890;SDS011;9071;48.220;14.480;2023-02-22T19:55:36;13.90;;;8.90;;
17890;SDS011;9071;48.220;14.480;2023-02-22T20:00:38;13.43;;;8.40;;
17890;SDS011;9071;48.220;14.480;2023-02-22T20:05:40;14.57;;;9.47;;
17890;SDS011;9071;48.220;14.480;2023-02-22T20:10:44;15.23;;;10.17;;
17890;SDS011;9071;48.220;14.480;2023-02-22T20:15:46;15.37;;;9.77;;
17890;SDS011;9071;48.220;14.480;2023-02-22T20:20:49;39.50;;;26.77;;
17890;SDS011;9071;48.220;14.480;2023-02-22T20:25:53;32.73;;;22.20;;
17890;SDS011;9071;48.220;14.480;2023-02-22T20:30:56;39.60;;;24.73;;
17890;SDS011;9071;48.220;14.480;2023-02-22T20:35:58;43.93;;;26.03;;
17890;SDS011;9071;48.220;14.480;2023-02-22T20:41:06;32.93;;;20.03;;
17890;SDS011;9071;48.220;14.480;2023-02-22T20:46:09;26.77;;;17.00;;
17890;SDS011;9071;48.220;14.480;2023-02-22T20:51:12;26.17;;;15.57;;
17890;SDS011;9071;48.220;14.480;2023-02-22T20:56:18;25.47;;;13.43;;
17890;SDS011;9071;48.220;14.480;2023-02-22T21:01:21;21.67;;;12.33;;
17890;SDS011;9071;48.220;14.480;2023-02-22T21:06:23;23.20;;;13.80;;
17890;SDS011;9071;48.220;14.480;2023-02-22T21:11:28;19.60;;;11.43;;
17890;SDS011;9071;48.220;14.480;2023-02-22T21:16:32;15.57;;;10.40;;
17890;SDS011;9071;48.220;14.480;2023-02-22T21:21:36;17.33;;;10.60;;
17890;SDS011;9071;48.220;14.480;2023-02-22T21:26:39;15.87;;;9.53;;
17890;SDS011;9071;48.220;14.480;2023-02-22T21:31:41;15.37;;;10.53;;
17890;SDS011;9071;48.220;14.480;2023-02-22T21:36:43;15.60;;;10.00;;
17890;SDS011;9071;48.220;14.480;2023-02-22T21:41:48;14.10;;;9.80;;
17890;SDS011;9071;48.220;14.480;2023-02-22T21:46:51;15.93;;;10.07;;
17890;SDS011;9071;48.220;14.480;2023-02-22T21:51:53;14.67;;;9.57;;
17890;SDS011;9071;48.220;14.480;2023-02-22T21:56:56;13.80;;;9.03;;
17890;SDS011;9071;48.220;14.480;2023-02-22T22:01:59;13.17;;;8.57;;
17890;SDS011;9071;48.220;14.480;2023-02-22T22:07:01;16.97;;;9.50;;
17890;SDS011;9071;48.220;14.480;2023-02-22T22:12:05;14.27;;;7.90;;
17890;SDS011;9071;48.220;14.480;2023-02-22T22:17:09;12.53;;;8.07;;
17890;SDS011;9071;48.220;14.480;2023-02-22T22:22:12;12.33;;;8.37;;
17890;SDS011;9071;48.220;14.480;2023-02-22T22:27:15;11.70;;;7.57;;
17890;SDS011;9071;48.220;14.480;2023-02-22T22:32:17;16.60;;;8.87;;
17890;SDS011;9071;48.220;14.480;2023-02-22T22:37:20;17.10;;;9.60;;
17890;SDS011;9071;48.220;14.480;2023-02-22T22:42:24;14.50;;;9.20;;
17890;SDS011;9071;48.220;14.480;2023-02-22T22:47:27;15.13;;;9.40;;
17890;SDS011;9071;48.220;14.480;2023-02-22T22:52:29;17.30;;;10.13;;
17890;SDS011;9071;48.220;14.480;2023-02-22T22:57:35;16.17;;;9.60;;
17890;SDS011;9071;48.220;14.480;2023-02-22T23:02:38;19.53;;;10.57;;
17890;SDS011;9071;48.220;14.480;2023-02-22T23:07:40;15.57;;;10.53;;
17890;SDS011;9071;48.220;14.480;2023-02-22T23:12:44;18.13;;;10.57;;
17890;SDS011;9071;48.220;14.480;2023-02-22T23:17:46;18.37;;;10.77;;
17890;SDS011;9071;48.220;14.480;2023-02-22T23:22:48;16.60;;;10.67;;
17890;SDS011;9071;48.220;14.480;2023-02-22T23:27:52;20.30;;;11.10;;
17890;SDS011;9071;48.220;14.480;2023-02-22T23:32:55;17.20;;;11.90;;
17890;SDS011;9071;48.220;14.480;2023-02-22T23:38:00;19.00;;;11.07;;
17890;SDS011;9071;48.220;14.480;2023-02-22T23:43:03;19.00;;;11.43;;
17890;SDS011;9071;48.220;14.480;2023-02-22T23:48:06;18.27;;;10.97;;
17890;SDS011;9071;48.220;14.480;2023-02-22T23:53:08;17.17;;;10.93;;
17890;SDS011;9071;48.220;14.480;2023-02-22T23:58:15;18.57;;;10.83;;
